Time;durP1;ratioP1;P1;durP2;ratioP2;P2;SDS_P1;SDS_P2;PMS_P1;PMS_P2;Temp;Humidity;BMP_temperature;BMP_pressure;BME280_temperature;BME280_humidity;BME280_pressure;Samples;Min_cycle;Max_cycle;Signal;HPM_P1;HPM_P2
2022/07/05 00:00:43;;;;;;;0.20;0.20;;;;;;;18.94;53.19;102225.28;5060987;22;20040;-77
2022/07/05 00:03:09;;;;;;;0.10;0.10;;;;;;;18.88;53.75;102227.22;5041233;28;20045;-80
2022/07/05 00:05:36;;;;;;;0.00;0.00;;;;;;;18.85;53.57;102231.81;5040253;28;20025;-80
2022/07/05 00:08:03;;;;;;;0.00;0.00;;;;;;;18.79;54.31;102226.63;5040081;28;20522;-81
2022/07/05 00:10:29;;;;;;;0.10;0.10;;;;;;;18.75;53.81;102232.13;5038393;28;20045;-80
2022/07/05 00:12:55;;;;;;;0.03;0.03;;;;;;;18.73;53.61;102228.59;5038755;28;20105;-80
2022/07/05 00:15:22;;;;;;;0.00;0.00;;;;;;;18.71;53.67;102225.06;5039551;28;20463;-81
2022/07/05 00:17:48;;;;;;;0.00;0.00;;;;;;;18.70;54.21;102217.94;5039979;28;20412;-79
2022/07/05 00:20:15;;;;;;;0.10;0.10;;;;;;;18.71;54.33;102225.06;5042269;28;20048;-80
2022/07/05 00:22:42;;;;;;;0.03;0.03;;;;;;;18.71;54.62;102225.06;5038258;28;20053;-80
2022/07/05 00:25:08;;;;;;;0.10;0.10;;;;;;;18.71;54.28;102225.06;5038481;28;20090;-81
2022/07/05 00:27:35;;;;;;;0.00;0.00;;;;;;;18.71;54.71;102222.38;5039107;28;20034;-80
2022/07/05 00:30:01;;;;;;;0.00;0.00;;;;;;;18.74;54.89;102224.09;5039469;28;20063;-80
2022/07/05 00:32:27;;;;;;;0.20;0.20;;;;;;;18.73;54.26;102223.22;5038078;28;20156;-79
2022/07/05 00:34:53;;;;;;;0.10;0.10;;;;;;;18.75;54.44;102223.16;5037956;28;20053;-80
2022/07/05 00:37:19;;;;;;;0.00;0.00;;;;;;;18.79;55.17;102221.25;5039257;28;20079;-79
2022/07/05 00:39:45;;;;;;;0.10;0.10;;;;;;;18.77;54.62;102224.00;5038539;28;20025;-80
2022/07/05 00:42:11;;;;;;;0.00;0.00;;;;;;;18.76;55.23;102206.13;5036806;28;20037;-79
2022/07/05 00:44:41;;;;;;;0.10;0.10;;;;;;;18.76;54.62;102217.75;5037257;28;20034;-79
2022/07/05 00:47:10;;;;;;;0.00;0.00;;;;;;;18.77;54.89;102226.69;5041117;28;20033;-80
2022/07/05 00:49:37;;;;;;;0.00;0.00;;;;;;;18.76;54.83;102223.09;5042656;28;20026;-78
2022/07/05 00:52:05;;;;;;;0.00;0.00;;;;;;;18.76;54.97;102220.41;5040880;28;20448;-80
2022/07/05 00:54:35;;;;;;;0.00;0.00;;;;;;;18.78;54.73;102216.81;5042455;28;20060;-81
2022/07/05 00:57:02;;;;;;;0.40;0.40;;;;;;;18.76;54.42;102216.88;5042392;28;20026;-80
2022/07/05 00:59:29;;;;;;;0.00;0.00;;;;;;;18.75;55.12;102221.38;5042062;28;20069;-79
2022/07/05 01:01:56;;;;;;;0.52;0.20;;;;;;;18.74;54.98;102219.63;5040110;28;20033;-78
2022/07/05 01:04:23;;;;;;;0.75;0.43;;;;;;;18.74;55.19;102219.63;5041629;28;20053;-80
2022/07/05 01:06:50;;;;;;;0.10;0.10;;;;;;;18.73;55.48;102223.22;5041692;28;20053;-80
2022/07/05 01:09:18;;;;;;;0.00;0.00;;;;;;;18.71;55.13;102214.34;5041437;28;20026;-80
2022/07/05 01:11:46;;;;;;;0.25;0.25;;;;;;;18.66;55.33;102210.91;5040792;28;20040;-79
2022/07/05 01:14:16;;;;;;;0.00;0.00;;;;;;;18.62;55.50;102217.31;5039021;28;20075;-79
2022/07/05 01:16:43;;;;;;;1.65;0.35;;;;;;;18.58;55.58;102213.00;5035944;28;20057;-79
2022/07/05 01:19:11;;;;;;;0.00;0.00;;;;;;;18.54;55.54;102222.03;5036398;28;20117;-79
2022/07/05 01:21:40;;;;;;;0.00;0.00;;;;;;;18.50;55.35;102232.00;5035864;28;20489;-80
2022/07/05 01:24:08;;;;;;;0.00;0.00;;;;;;;18.45;55.11;102220.53;5036681;28;20482;-80
2022/07/05 01:26:36;;;;;;;0.00;0.00;;;;;;;18.43;55.90;102225.94;5037139;28;20035;-79
2022/07/05 01:29:02;;;;;;;0.03;0.03;;;;;;;18.38;56.10;102219.84;5036980;28;20194;-79
2022/07/05 01:31:29;;;;;;;0.00;0.00;;;;;;;18.35;56.01;102217.25;5035975;28;20065;-79
2022/07/05 01:33:55;;;;;;;0.00;0.00;;;;;;;18.32;55.54;102221.81;5036158;28;20064;-79
2022/07/05 01:36:22;;;;;;;0.00;0.00;;;;;;;18.28;55.17;102223.75;5036759;28;20116;-80
2022/07/05 01:38:48;;;;;;;0.03;0.03;;;;;;;18.24;55.35;102222.06;5035964;28;20033;-81
2022/07/05 01:41:15;;;;;;;0.00;0.00;;;;;;;18.20;56.24;102223.09;5035628;28;20036;-79
2022/07/05 01:43:41;;;;;;;0.00;0.00;;;;;;;18.17;57.13;102228.53;5036090;28;20029;-78
2022/07/05 01:46:10;;;;;;;0.00;0.00;;;;;;;18.16;56.40;102226.81;5036032;28;20040;-79
2022/07/05 01:48:39;;;;;;;0.00;0.00;;;;;;;18.14;56.75;102224.16;5035449;28;20527;-79
2022/07/05 01:51:15;;;;;;;0.10;0.10;;;;;;;18.13;57.09;102230.47;5035913;28;20034;-79
2022/07/05 01:53:44;;;;;;;0.10;0.10;;;;;;;18.13;56.79;102226.88;5037889;28;20025;-78
2022/07/05 01:56:10;;;;;;;0.00;0.00;;;;;;;18.07;57.58;102228.81;5040381;28;20029;-78
2022/07/05 01:58:37;;;;;;;0.10;0.10;;;;;;;18.07;56.94;102231.50;5040519;28;20543;-79
2022/07/05 02:01:03;;;;;;;0.00;0.00;;;;;;;18.08;57.51;102229.69;5040290;28;20029;-80
2022/07/05 02:03:29;;;;;;;0.00;0.00;;;;;;;18.10;57.02;102222.50;5041134;28;20041;-81
2022/07/05 02:05:55;;;;;;;0.00;0.00;;;;;;;18.11;56.99;102219.75;5045146;28;20570;-80
2022/07/05 02:08:28;;;;;;;0.00;0.00;;;;;;;18.10;57.79;102218.00;5046071;28;20025;-80
2022/07/05 02:10:54;;;;;;;0.05;0.05;;;;;;;18.08;57.40;102211.81;5045349;28;20040;-80
2022/07/05 02:13:21;;;;;;;0.15;0.15;;;;;;;18.05;56.90;102219.94;5046216;28;20029;-81
2022/07/05 02:15:47;;;;;;;0.00;0.00;;;;;;;17.99;57.01;102220.13;5046193;28;20085;-81
2022/07/05 02:18:13;;;;;;;0.00;0.00;;;;;;;17.94;57.05;102219.38;5046019;28;20041;-79
2022/07/05 02:20:40;;;;;;;0.35;0.35;;;;;;;17.91;56.95;102220.31;5045215;28;20033;-78
2022/07/05 02:23:07;;;;;;;0.10;0.10;;;;;;;17.88;57.37;102222.19;5045805;28;20065;-81
2022/07/05 02:25:34;;;;;;;0.00;0.00;;;;;;;17.87;57.14;102223.13;5044319;28;20509;-80
2022/07/05 02:28:01;;;;;;;0.00;0.00;;;;;;;17.84;57.35;102215.16;5039662;28;20485;-79
2022/07/05 02:30:27;;;;;;;0.10;0.10;;;;;;;17.81;57.66;102217.94;5039799;28;20040;-79
2022/07/05 02:32:53;;;;;;;0.00;0.00;;;;;;;17.78;57.61;102227.84;5038296;28;20359;-80
2022/07/05 02:35:19;;;;;;;0.00;0.00;;;;;;;17.77;57.36;102231.44;5038621;28;20354;-79
2022/07/05 02:37:45;;;;;;;0.10;0.10;;;;;;;17.76;57.24;102227.00;5038438;28;20205;-79
2022/07/05 02:40:13;;;;;;;0.00;0.00;;;;;;;17.72;57.13;102225.31;5038825;28;20541;-78
2022/07/05 02:42:40;;;;;;;0.05;0.05;;;;;;;17.72;57.35;102221.75;5039087;28;20029;-78
2022/07/05 02:45:07;;;;;;;0.10;0.10;;;;;;;17.69;57.99;102221.84;5038818;28;20036;-79
2022/07/05 02:47:34;;;;;;;0.00;0.00;;;;;;;17.66;57.64;102220.13;5039328;28;20460;-78
2022/07/05 02:50:05;;;;;;;0.10;0.10;;;;;;;17.65;58.41;102221.06;5039924;28;20037;-80
2022/07/05 02:52:31;;;;;;;0.10;0.10;;;;;;;17.61;58.00;102224.75;5038390;28;20128;-79
2022/07/05 02:54:57;;;;;;;0.30;0.30;;;;;;;17.59;57.37;102231.94;5039493;28;20029;-78
2022/07/05 02:57:23;;;;;;;0.00;0.00;;;;;;;17.58;58.02;102235.53;5038008;28;20025;-80
2022/07/05 02:59:52;;;;;;;0.03;0.03;;;;;;;17.56;58.57;102232.03;5039450;28;20040;-78
2022/07/05 03:02:18;;;;;;;0.05;0.05;;;;;;;17.55;58.13;102224.91;5037925;28;20485;-79
2022/07/05 03:04:44;;;;;;;0.00;0.00;;;;;;;17.55;57.43;102235.63;5037351;28;20475;-80
2022/07/05 03:07:10;;;;;;;0.00;0.00;;;;;;;17.53;57.83;102237.47;5037650;28;20060;-79
2022/07/05 03:09:36;;;;;;;0.10;0.10;;;;;;;17.51;57.92;102228.56;5041557;28;20504;-81
2022/07/05 03:12:02;;;;;;;0.28;0.28;;;;;;;17.49;57.58;102241.16;5043047;28;20084;-80
2022/07/05 03:14:28;;;;;;;0.52;0.52;;;;;;;17.48;57.90;102228.69;5044099;28;20025;-80
2022/07/05 03:16:54;;;;;;;0.08;0.08;;;;;;;17.49;58.44;102235.78;5043961;28;20029;-81
2022/07/05 03:19:21;;;;;;;0.00;0.00;;;;;;;17.51;58.26;102240.19;5049903;28;20033;-78
2022/07/05 03:21:47;;;;;;;0.03;0.03;;;;;;;17.53;57.56;102237.47;5046890;28;20055;-78
2022/07/05 03:24:13;;;;;;;0.10;0.10;;;;;;;17.56;57.32;102243.63;5043729;28;20034;-79
2022/07/05 03:26:39;;;;;;;0.17;0.17;;;;;;;17.62;57.55;102243.47;5042705;28;20382;-79
2022/07/05 03:29:05;;;;;;;0.10;0.10;;;;;;;17.67;58.34;102232.63;5042300;28;20020;-79
2022/07/05 03:31:31;;;;;;;0.00;0.00;;;;;;;17.74;58.02;102233.31;5041665;28;20041;-79
2022/07/05 03:33:57;;;;;;;0.10;0.10;;;;;;;17.79;58.63;102234.06;5042644;28;20032;-79
2022/07/05 03:36:23;;;;;;;0.10;0.10;;;;;;;17.83;58.51;102240.22;5041494;28;20038;-80
2022/07/05 03:38:49;;;;;;;0.00;0.00;;;;;;;17.88;58.14;102249.00;5041441;28;20032;-80
2022/07/05 03:41:16;;;;;;;0.10;0.10;;;;;;;17.93;58.46;102245.28;5040593;28;20034;-79
2022/07/05 03:43:42;;;;;;;0.00;0.00;;;;;;;17.99;57.98;102246.06;5041569;28;20489;-79
2022/07/05 03:46:08;;;;;;;0.17;0.17;;;;;;;18.05;58.46;102254.78;5043101;28;20071;-79
2022/07/05 03:48:34;;;;;;;0.00;0.00;;;;;;;18.08;58.11;102245.78;5041537;28;20057;-80
2022/07/05 03:51:00;;;;;;;0.10;0.10;;;;;;;18.14;57.84;102250.09;5041267;28;20041;-80
2022/07/05 03:53:26;;;;;;;0.00;0.00;;;;;;;18.18;57.71;102246.41;5041011;28;20053;-78
2022/07/05 03:55:52;;;;;;;0.00;0.00;;;;;;;18.20;58.08;102239.19;5042440;28;20037;-80
2022/07/05 03:58:18;;;;;;;0.03;0.03;;;;;;;18.22;58.15;102248.09;5041279;28;20028;-80
2022/07/05 04:00:44;;;;;;;0.10;0.10;;;;;;;18.23;58.18;102250.72;5041130;28;20049;-80
2022/07/05 04:03:11;;;;;;;0.10;0.10;;;;;;;18.24;58.00;102246.22;5041706;28;20037;-80
2022/07/05 04:05:39;;;;;;;0.20;0.20;;;;;;;18.26;57.43;102255.97;5041297;28;20029;-81
2022/07/05 04:08:05;;;;;;;0.10;0.10;;;;;;;18.26;57.36;102249.75;5041742;28;20152;-79
2022/07/05 04:10:31;;;;;;;0.00;0.00;;;;;;;18.26;57.43;102250.59;5041441;28;20041;-81
2022/07/05 04:12:57;;;;;;;0.10;0.10;;;;;;;18.28;57.49;102258.63;5041617;28;20487;-79
2022/07/05 04:15:23;;;;;;;0.10;0.10;;;;;;;18.30;57.69;102256.75;5041745;28;20031;-79
2022/07/05 04:17:53;;;;;;;0.10;0.10;;;;;;;18.37;58.14;102254.78;5040819;28;20408;-78
2022/07/05 04:20:21;;;;;;;0.08;0.08;;;;;;;18.39;57.84;102259.19;5041354;28;20029;-79
2022/07/05 04:22:48;;;;;;;0.00;0.00;;;;;;;18.43;58.49;102258.16;5040490;28;20029;-80
2022/07/05 04:25:16;;;;;;;0.00;0.00;;;;;;;18.47;58.96;102255.38;5040504;28;20044;-79
2022/07/05 04:27:43;;;;;;;0.00;0.00;;;;;;;18.52;58.22;102256.13;5040421;28;20025;-80
2022/07/05 04:30:10;;;;;;;0.00;0.00;;;;;;;18.57;58.13;102255.03;5040819;28;20069;-79
2022/07/05 04:32:36;;;;;;;0.10;0.10;;;;;;;18.62;58.07;102260.28;5040714;28;20059;-80
2022/07/05 04:35:02;;;;;;;0.08;0.08;;;;;;;18.64;57.92;102261.13;5041460;28;20026;-81
2022/07/05 04:37:28;;;;;;;0.00;0.00;;;;;;;18.64;57.96;102263.81;5040654;28;20033;-81
2022/07/05 04:39:54;;;;;;;0.10;0.10;;;;;;;18.61;57.74;102261.19;5041578;28;20041;-81
2022/07/05 04:42:20;;;;;;;0.70;0.52;;;;;;;18.58;57.54;102259.50;5039612;28;20060;-80
2022/07/05 04:44:47;;;;;;;0.15;0.15;;;;;;;18.56;57.62;102260.47;5041682;28;20317;-80
2022/07/05 04:47:13;;;;;;;0.03;0.03;;;;;;;18.52;57.67;102266.88;5041631;28;20037;-80
2022/07/05 04:49:39;;;;;;;0.00;0.00;;;;;;;18.49;57.70;102261.56;5040994;28;20041;-80
2022/07/05 04:52:06;;;;;;;0.10;0.10;;;;;;;18.47;57.64;102266.09;5040218;28;20037;-79
2022/07/05 04:54:32;;;;;;;0.10;0.10;;;;;;;18.43;57.56;102271.56;5040163;28;20512;-81
2022/07/05 04:56:58;;;;;;;0.00;0.00;;;;;;;18.42;58.38;102266.25;5041260;28;20025;-80
2022/07/05 04:59:24;;;;;;;0.00;0.00;;;;;;;18.42;58.97;102271.63;5041198;28;20021;-81
2022/07/05 05:01:50;;;;;;;0.00;0.00;;;;;;;18.39;59.40;102272.59;5040465;28;20076;-80
2022/07/05 05:04:16;;;;;;;0.00;0.00;;;;;;;18.40;58.58;102273.47;5040554;28;20052;-81
2022/07/05 05:06:42;;;;;;;0.05;0.05;;;;;;;18.40;58.56;102263.59;5040372;28;20067;-80
2022/07/05 05:09:08;;;;;;;0.10;0.10;;;;;;;18.43;58.74;102263.53;5040459;28;20030;-80
2022/07/05 05:11:34;;;;;;;0.10;0.10;;;;;;;18.46;58.62;102267.91;5024738;28;20116;-80
2022/07/05 05:14:00;;;;;;;0.10;0.10;;;;;;;18.48;60.13;102275.91;5021087;28;20022;-79
2022/07/05 05:16:26;;;;;;;0.10;0.10;;;;;;;18.53;58.86;102268.59;5021071;28;20038;-80
2022/07/05 05:18:52;;;;;;;0.10;0.10;;;;;;;18.57;59.19;102268.47;5019925;28;20030;-80
2022/07/05 05:21:19;;;;;;;0.08;0.08;;;;;;;18.64;59.90;102268.28;5020110;28;20494;-80
2022/07/05 05:23:45;;;;;;;0.52;0.52;;;;;;;18.72;58.83;102280.53;5020426;28;20038;-81
2022/07/05 05:26:11;;;;;;;0.20;0.20;;;;;;;18.83;59.05;102284.66;5021006;28;20557;-80
2022/07/05 05:28:38;;;;;;;0.03;0.03;;;;;;;18.92;59.27;102282.59;5019754;28;20025;-80
2022/07/05 05:31:05;;;;;;;0.08;0.08;;;;;;;19.05;58.27;102279.53;5022240;28;20034;-80
2022/07/05 05:33:31;;;;;;;0.10;0.10;;;;;;;19.21;58.19;102282.59;5024551;28;20029;-81
2022/07/05 05:35:57;;;;;;;0.00;0.00;;;;;;;19.34;58.40;102286.63;5023687;28;20041;-79
2022/07/05 05:38:23;;;;;;;0.00;0.00;;;;;;;19.43;58.64;102289.91;5023882;28;20429;-80
2022/07/05 05:40:49;;;;;;;0.08;0.08;;;;;;;19.62;57.24;102291.03;5022902;28;20137;-80
2022/07/05 05:43:15;;;;;;;0.00;0.00;;;;;;;19.76;58.01;102295.06;5024146;28;20038;-80
2022/07/05 05:45:41;;;;;;;0.17;0.17;;;;;;;19.89;58.17;102288.34;5024272;28;20065;-81
2022/07/05 05:48:08;;;;;;;0.17;0.17;;;;;;;20.05;57.33;102285.97;5023441;28;20040;-80
2022/07/05 05:50:37;;;;;;;0.10;0.10;;;;;;;20.18;57.50;102286.38;5026360;28;20097;-80
2022/07/05 05:53:03;;;;;;;0.00;0.00;;;;;;;20.30;57.39;102283.22;5024548;28;20022;-80
2022/07/05 05:55:30;;;;;;;0.00;0.00;;;;;;;20.43;56.78;102285.44;5025252;28;20038;-80
2022/07/05 05:57:57;;;;;;;0.10;0.10;;;;;;;20.54;56.29;102275.13;5022508;28;20049;-79
2022/07/05 06:00:24;;;;;;;0.40;0.40;;;;;;;20.65;56.51;102286.34;5018866;28;20033;-80
2022/07/05 06:02:51;;;;;;;0.10;0.10;;;;;;;20.77;56.33;102278.75;5039372;22;20101;-79
2022/07/05 06:05:20;;;;;;;0.00;0.00;;;;;;;20.89;56.39;102282.78;5016135;28;20037;-78
2022/07/05 06:08:06;;;;;;;0.10;0.10;;;;;;;21.10;56.09;102289.09;5015621;28;20034;-78
2022/07/05 06:10:35;;;;;;;0.08;0.08;;;;;;;21.09;54.84;102285.53;5015747;28;20535;-78
2022/07/05 06:13:04;;;;;;;0.10;0.10;;;;;;;21.16;53.81;102295.09;5014576;28;20030;-79
2022/07/05 06:15:31;;;;;;;0.10;0.10;;;;;;;21.23;53.73;102294.84;5015165;28;20037;-78
2022/07/05 06:17:57;;;;;;;0.13;0.13;;;;;;;21.32;54.11;102291.75;5015879;28;20110;-78
2022/07/05 06:20:27;;;;;;;0.17;0.17;;;;;;;21.37;53.37;102292.47;5015358;28;20025;-79
2022/07/05 06:22:53;;;;;;;0.08;0.08;;;;;;;21.47;53.72;102301.91;5014769;28;20053;-79
2022/07/05 06:25:20;;;;;;;0.00;0.00;;;;;;;21.56;53.11;102289.88;5015093;28;20029;-79
2022/07/05 06:28:04;;;;;;;0.10;0.10;;;;;;;21.61;51.98;102298.63;5015024;28;20053;-78
2022/07/05 06:30:32;;;;;;;0.00;0.00;;;;;;;21.64;50.12;102295.78;5015745;28;20487;-80
2022/07/05 06:32:58;;;;;;;0.10;0.10;;;;;;;21.68;49.74;102303.75;5014266;28;20032;-79
2022/07/05 06:35:26;;;;;;;0.10;0.10;;;;;;;21.75;50.50;102302.56;5014001;28;20500;-78
2022/07/05 06:37:57;;;;;;;0.00;0.00;;;;;;;21.76;49.72;102313.28;5015051;28;20071;-78
2022/07/05 06:40:27;;;;;;;0.00;0.00;;;;;;;21.78;50.41;102311.41;5016350;28;20037;-79
2022/07/05 06:42:56;;;;;;;0.10;0.10;;;;;;;21.86;50.79;102313.75;5016052;28;20029;-77
2022/07/05 06:45:23;;;;;;;0.10;0.10;;;;;;;21.92;49.93;102317.97;5016695;28;20033;-79
2022/07/05 06:47:58;;;;;;;0.00;0.00;;;;;;;22.01;49.79;102327.47;5016114;28;20436;-78
2022/07/05 06:50:25;;;;;;;0.00;0.00;;;;;;;21.90;47.35;102322.59;5016311;28;20034;-78
2022/07/05 06:52:52;;;;;;;0.00;0.00;;;;;;;21.92;47.16;102332.38;5014366;28;20029;-79
2022/07/05 06:55:18;;;;;;;0.03;0.03;;;;;;;21.98;49.12;102333.91;5017311;28;20185;-79
2022/07/05 06:57:45;;;;;;;0.10;0.10;;;;;;;22.01;48.09;102330.19;5000127;28;20109;-77
2022/07/05 07:00:12;;;;;;;0.00;0.00;;;;;;;22.03;47.55;102325.59;4995081;28;20369;-79
2022/07/05 07:02:38;;;;;;;0.00;0.00;;;;;;;22.14;48.62;102334.09;4993928;28;20031;-77
2022/07/05 07:05:05;;;;;;;0.00;0.00;;;;;;;22.11;46.76;102328.84;5011439;28;20141;-78
2022/07/05 07:10:18;;;;;;;0.10;0.10;;;;;;;22.21;47.22;102335.56;5014342;28;20839;-78
2022/07/05 07:12:44;;;;;;;0.20;0.20;;;;;;;22.17;47.40;102336.66;5013645;28;20193;-78
2022/07/05 07:15:11;;;;;;;0.10;0.10;;;;;;;22.15;45.90;102335.84;5013109;28;20549;-77
2022/07/05 07:17:37;;;;;;;0.00;0.00;;;;;;;22.12;46.54;102330.59;5012785;28;20038;-78
2022/07/05 07:20:04;;;;;;;0.10;0.10;;;;;;;22.12;46.05;102336.88;5012305;28;20149;-78
2022/07/05 07:22:30;;;;;;;0.10;0.10;;;;;;;22.17;45.56;102328.56;5010655;28;20610;-78
2022/07/05 07:24:56;;;;;;;0.10;0.10;;;;;;;22.29;46.84;102337.91;5010865;28;20101;-78
2022/07/05 07:27:22;;;;;;;0.10;0.10;;;;;;;22.30;45.27;102332.44;5010570;28;20041;-78
2022/07/05 07:29:48;;;;;;;0.10;0.10;;;;;;;22.30;45.67;102345.94;5012052;28;20042;-78
2022/07/05 07:32:14;;;;;;;0.10;0.10;;;;;;;22.36;46.41;102346.63;5010390;28;20030;-78
2022/07/05 07:34:41;;;;;;;0.08;0.08;;;;;;;22.33;44.54;102350.34;5000743;28;20551;-78
2022/07/05 07:37:08;;;;;;;0.10;0.10;;;;;;;22.39;45.79;102341.09;5002566;28;20034;-78
2022/07/05 07:39:35;;;;;;;4.60;1.55;;;;;;;22.38;45.29;102344.75;5011525;28;20025;-80
2022/07/05 07:42:01;;;;;;;0.03;0.03;;;;;;;22.30;45.85;102356.72;5010166;28;20496;-77
2022/07/05 07:44:27;;;;;;;0.10;0.10;;;;;;;22.23;45.92;102349.88;5011095;28;20503;-78
2022/07/05 07:46:53;;;;;;;0.00;0.00;;;;;;;22.12;46.13;102347.66;5010269;28;20056;-79
2022/07/05 07:49:20;;;;;;;0.10;0.10;;;;;;;22.08;46.49;102351.44;5010801;28;20508;-78
2022/07/05 07:51:46;;;;;;;0.22;0.22;;;;;;;22.04;46.40;102349.81;5009089;28;20030;-77
2022/07/05 07:54:12;;;;;;;0.00;0.00;;;;;;;22.03;45.99;102356.19;5010745;28;20049;-80
2022/07/05 07:56:38;;;;;;;0.00;0.00;;;;;;;22.01;45.06;102349.97;5015066;28;20148;-80
2022/07/05 07:59:04;;;;;;;0.10;0.10;;;;;;;21.98;45.28;102353.69;5015035;28;20022;-79
2022/07/05 08:01:31;;;;;;;0.10;0.10;;;;;;;22.03;45.62;102360.69;5002571;28;20038;-80
2022/07/05 08:03:57;;;;;;;0.20;0.20;;;;;;;22.21;45.34;102357.16;5011448;28;20447;-80
2022/07/05 08:06:23;;;;;;;0.05;0.05;;;;;;;22.32;45.52;102358.50;5015115;28;20026;-80
2022/07/05 08:08:49;;;;;;;0.00;0.00;;;;;;;22.36;45.29;102360.13;5015078;28;20053;-80
2022/07/05 08:11:16;;;;;;;0.38;0.38;;;;;;;22.47;45.75;102352.44;5020990;28;20049;-80
2022/07/05 08:13:42;;;;;;;0.10;0.10;;;;;;;22.54;45.01;102353.91;5016639;28;20033;-80
2022/07/05 08:16:11;;;;;;;0.10;0.10;;;;;;;22.56;44.34;102353.84;5015075;28;20041;-80
2022/07/05 08:21:30;;;;;;;0.05;0.05;;;;;;;22.50;43.76;102354.97;5014563;28;20500;-80
2022/07/05 08:23:58;;;;;;;0.00;0.00;;;;;;;22.49;43.39;102358.63;5016310;28;20041;-80
2022/07/05 08:26:24;;;;;;;0.00;0.00;;;;;;;22.59;42.53;102368.06;5015234;28;20052;-80
2022/07/05 08:28:50;;;;;;;0.10;0.10;;;;;;;22.61;42.53;102355.34;5015289;28;20033;-80
2022/07/05 08:31:16;;;;;;;0.00;0.00;;;;;;;22.51;42.60;102358.56;5014255;28;20030;-79
2022/07/05 08:33:42;;;;;;;0.00;0.00;;;;;;;22.71;43.15;102355.78;5014839;28;20054;-80
2022/07/05 08:36:08;;;;;;;0.10;0.10;;;;;;;22.83;42.12;102351.66;5014322;28;20029;-79
2022/07/05 08:38:34;;;;;;;0.10;0.10;;;;;;;23.01;42.86;102346.31;5014757;28;20040;-79
2022/07/05 08:41:02;;;;;;;0.38;0.38;;;;;;;23.13;42.53;102351.09;5013510;28;20436;-78
2022/07/05 08:43:29;;;;;;;0.08;0.08;;;;;;;23.20;42.34;102349.00;5012810;28;20400;-78
2022/07/05 08:45:58;;;;;;;0.00;0.00;;;;;;;23.17;41.88;102346.47;5007651;28;20037;-78
2022/07/05 08:48:26;;;;;;;0.00;0.00;;;;;;;23.07;40.58;102343.28;5007770;28;20048;-78
2022/07/05 08:50:54;;;;;;;0.20;0.20;;;;;;;22.88;40.47;102351.41;5012204;28;20093;-77
2022/07/05 08:53:21;;;;;;;0.10;0.10;;;;;;;22.99;41.56;102343.69;5012227;28;20498;-78
2022/07/05 08:55:47;;;;;;;0.10;0.10;;;;;;;22.94;40.40;102335.78;5013100;28;20041;-77
2022/07/05 08:58:14;;;;;;;0.52;0.52;;;;;;;23.13;41.61;102340.28;5012278;28;20085;-78
2022/07/05 09:00:41;;;;;;;0.08;0.08;;;;;;;23.12;39.99;102338.53;5012868;28;20454;-77
2022/07/05 09:03:07;;;;;;;0.10;0.10;;;;;;;23.12;40.47;102343.09;5011766;28;20121;-77
2022/07/05 09:05:44;;;;;;;0.10;0.10;;;;;;;23.15;41.10;102343.78;5015413;28;20062;-78
2022/07/05 09:08:14;;;;;;;0.05;0.05;;;;;;;23.16;41.16;102353.69;5016136;28;20037;-78
2022/07/05 09:10:43;;;;;;;7.28;1.10;;;;;;;23.19;41.42;102348.13;5016426;28;20041;-78
2022/07/05 09:13:09;;;;;;;0.08;0.08;;;;;;;23.31;41.44;102351.19;5016428;28;20629;-77
2022/07/05 09:15:39;;;;;;;0.10;0.10;;;;;;;23.44;40.63;102360.44;5016399;28;20026;-77
2022/07/05 09:18:05;;;;;;;0.00;0.00;;;;;;;23.59;41.00;102359.63;5016967;28;20022;-78
2022/07/05 09:20:31;;;;;;;0.10;0.10;;;;;;;23.41;39.71;102352.44;5016388;28;20474;-77
2022/07/05 09:22:57;;;;;;;0.05;0.05;;;;;;;23.59;40.04;102356.94;5012855;28;20084;-78
2022/07/05 09:25:28;;;;;;;0.10;0.10;;;;;;;23.63;39.60;102359.47;5005969;28;20041;-78
2022/07/05 09:33:16;;;;;;;0.10;0.10;;;;;;;24.13;38.98;102368.66;5089492;27;20896;-78
2022/07/05 09:35:50;;;;;;;0.40;0.40;;;;;;;23.98;39.69;102373.06;5071083;28;20028;-79
2022/07/05 09:38:21;;;;;;;0.10;0.10;;;;;;;23.83;40.33;102367.44;5070685;28;20056;-79
2022/07/05 09:40:49;;;;;;;0.13;0.13;;;;;;;23.53;40.35;102370.78;5070033;28;20028;-78
2022/07/05 09:43:17;;;;;;;0.10;0.10;;;;;;;23.58;41.58;102371.41;5071043;28;20021;-80
2022/07/05 09:46:01;;;;;;;0.30;0.30;;;;;;;23.58;39.49;102382.22;5071176;28;20025;-79
2022/07/05 09:48:29;;;;;;;0.10;0.10;;;;;;;23.83;40.22;102370.16;5071372;28;20021;-79
2022/07/05 09:51:06;;;;;;;0.03;0.03;;;;;;;24.18;39.13;102377.41;5076653;28;20060;-80
2022/07/05 09:53:49;;;;;;;0.10;0.10;;;;;;;24.25;38.36;102377.94;5085191;28;20036;-77
2022/07/05 09:56:16;;;;;;;0.08;0.08;;;;;;;24.13;38.33;102374.06;5081298;28;20028;-79
2022/07/05 09:58:43;;;;;;;0.10;0.10;;;;;;;24.10;38.41;102380.53;5088149;28;20384;-78
2022/07/05 10:01:30;;;;;;;0.55;0.55;;;;;;;24.23;39.01;102378.03;5079781;28;20043;-79
2022/07/05 10:03:58;;;;;;;0.10;0.10;;;;;;;24.17;37.87;102378.34;5083527;28;20024;-80
2022/07/05 10:06:26;;;;;;;0.10;0.10;;;;;;;23.98;39.49;102382.03;5081480;28;20020;-79
2022/07/05 10:08:54;;;;;;;0.10;0.10;;;;;;;23.98;40.04;102378.47;5082578;28;20024;-79
2022/07/05 10:11:21;;;;;;;0.00;0.00;;;;;;;23.87;40.46;102378.97;5079705;28;20499;-80
2022/07/05 10:13:50;;;;;;;0.10;0.10;;;;;;;24.00;40.82;102381.94;5079310;28;20438;-80
2022/07/05 10:16:17;;;;;;;0.05;0.05;;;;;;;24.08;40.24;102387.84;5080980;28;20020;-80
2022/07/05 10:18:46;;;;;;;0.10;0.10;;;;;;;24.24;39.49;102377.06;5082937;28;20639;-78
2022/07/05 10:21:14;;;;;;;0.10;0.10;;;;;;;24.42;40.35;102380.59;5078095;28;20033;-80
2022/07/05 10:23:45;;;;;;;0.10;0.10;;;;;;;24.28;39.79;102392.19;5078955;28;20025;-80
2022/07/05 10:26:15;;;;;;;0.10;0.10;;;;;;;24.14;39.88;102387.53;5078377;28;20484;-80
2022/07/05 10:28:45;;;;;;;0.00;0.00;;;;;;;24.16;40.30;102385.63;5084813;28;20561;-80
2022/07/05 10:31:14;;;;;;;0.00;0.00;;;;;;;24.17;38.83;102384.63;5078030;28;20066;-79
2022/07/05 10:33:40;;;;;;;0.10;0.10;;;;;;;24.16;38.38;102384.72;5079929;28;20025;-78
2022/07/05 10:36:10;;;;;;;0.00;0.00;;;;;;;24.01;38.43;102381.88;5077104;28;20500;-80
2022/07/05 10:38:39;;;;;;;0.63;0.63;;;;;;;23.95;39.23;102381.31;5088562;28;20039;-80
2022/07/05 10:41:07;;;;;;;0.03;0.03;;;;;;;23.93;39.32;102384.13;5084350;28;20039;-81
2022/07/05 10:43:34;;;;;;;0.10;0.10;;;;;;;24.09;39.07;102389.59;5073449;28;20499;-80
2022/07/05 10:46:02;;;;;;;0.10;0.10;;;;;;;24.17;40.56;102403.59;5079331;28;20095;-81
2022/07/05 10:48:29;;;;;;;0.15;0.15;;;;;;;24.20;38.43;102392.59;5080060;28;20491;-81
2022/07/05 10:56:14;;;;;;;0.10;0.10;;;;;;;24.19;38.98;102407.09;5111637;27;20362;-79
2022/07/05 10:58:42;;;;;;;2.20;1.48;;;;;;;24.13;39.13;102402.00;5111623;28;20027;-79
2022/07/05 11:09:19;;;;;;;0.10;0.10;;;;;;;23.89;39.65;102396.91;5091633;28;20332;-79
2022/07/05 11:14:37;;;;;;;0.10;0.10;;;;;;;23.87;38.02;102406.06;5074979;27;1176174;-80
2022/07/05 11:20:09;;;;;;;0.10;0.10;;;;;;;23.89;37.80;102407.72;5071417;28;20882;-80
2022/07/05 11:22:40;;;;;;;0.00;0.00;;;;;;;24.11;38.39;102412.03;5069809;28;20033;-80
2022/07/05 11:25:09;;;;;;;0.22;0.22;;;;;;;24.24;37.75;102415.00;5071465;28;20035;-80
2022/07/05 11:27:36;;;;;;;0.10;0.10;;;;;;;24.15;37.18;102416.34;5070146;28;20100;-80
2022/07/05 11:30:02;;;;;;;0.10;0.10;;;;;;;24.25;38.06;102413.16;5069608;28;20067;-80
2022/07/05 11:35:20;;;;;;;0.10;0.10;;;;;;;24.12;37.07;102421.91;5093304;27;1899189;-80
2022/07/05 11:38:07;;;;;;;0.10;0.10;;;;;;;24.43;36.66;102419.44;5133187;28;20027;-80
2022/07/05 11:40:40;;;;;;;0.00;0.00;;;;;;;24.55;37.17;102429.59;5133371;28;20031;-81
2022/07/05 11:43:08;;;;;;;0.20;0.20;;;;;;;24.42;35.78;102426.66;5117005;28;20035;-80
2022/07/05 11:45:34;;;;;;;0.25;0.25;;;;;;;24.34;36.08;102420.81;5112646;28;20111;-81
2022/07/05 11:48:03;;;;;;;0.10;0.10;;;;;;;24.42;36.12;102429.38;5112635;28;20032;-81
2022/07/05 11:50:32;;;;;;;0.10;0.10;;;;;;;24.43;35.79;102414.88;5112816;28;20032;-80
2022/07/05 11:53:00;;;;;;;0.08;0.08;;;;;;;24.27;35.64;102422.94;5112499;28;20477;-80
2022/07/05 11:55:29;;;;;;;0.10;0.10;;;;;;;24.33;35.59;102424.47;5112356;28;20081;-80
2022/07/05 11:57:57;;;;;;;0.10;0.10;;;;;;;24.64;34.06;102436.34;5111854;28;20047;-80